Airport Name : Adelaide Intl

Other Name : Adelaide Intl

ICAO : YPAD

IATA : ADL

FAA :

Latitude : -34.945

Longitude : 138.530556

Country : Australia

Local Date and Time : 29 Oct 2020 06:24

 

TAF (Terminal Aerodrome Forecast)

TAF AMD YPAD 281710Z 2818/3000 02011KT 9999 -RA NSC BECMG 2900/2902 26017KT 9999 -SHRA SCT030 FM291000 22010KT 9999 -SHRA BKN012 FM291500 19014KT 9999 -SHRA SCT012 INTER 2902/2910 4000 SHRA SCT015 INTER 2910/2915 4000 SHRA BKN010 TEMPO 2915/3000 3000 SHRA BKN010 PROB30 INTER 2900/2905 VRB25G35KT 3000 TSRA BKN020 SCT040CB

 

METAR (METeorological Aerodrome Report)

YPAD 281930Z 03007KT CAVOK 16/05 Q1010 NOSIG

YPAD 281900Z 01006KT CAVOK 16/05 Q1010 NOSIG

YPAD 281830Z 01006KT CAVOK 17/05 Q1010 NOSIG

YPAD 281800Z 04009KT CAVOK 17/05 Q1009

YPAD 281730Z 04011KT CAVOK 17/04 Q1009 NOSIG

YPAD 281700Z 04009KT CAVOK 16/05 Q1010

YPAD 281630Z 03011KT CAVOK 16/05 Q1010 NOSIG

YPAD 281600Z 04011KT CAVOK 16/05 Q1010 NOSIG

To Charter a Jet Click here.